Time;durP1;ratioP1;P1;durP2;ratioP2;P2;SDS_P1;SDS_P2;PMS_P1;PMS_P2;Temp;Humidity;BMP_temperature;BMP_pressure;BME280_temperature;BME280_humidity;BME280_pressure;Samples;Min_cycle;Max_cycle;Signal;HPM_P1;HPM_P2
2022/03/28 00:01:33;;;;;;;27.60;8.60;;;;;;;;;;4930083;29;20492;-72
2022/03/28 00:04:00;;;;;;;29.05;9.80;;;;;;;;;;4926908;29;20409;-72
2022/03/28 00:06:26;;;;;;;25.15;8.38;;;;;;;;;;4929214;29;20059;-70
2022/03/28 00:08:52;;;;;;;31.10;8.27;;;;;;;;;;4930041;29;20095;-73
2022/03/28 00:11:19;;;;;;;29.65;9.65;;;;;;;;;;4932615;29;20065;-71
2022/03/28 00:13:45;;;;;;;26.17;9.20;;;;;;;;;;4913361;29;20054;-72
2022/03/28 00:16:12;;;;;;;24.52;9.07;;;;;;;;;;4928148;29;20497;-70
2022/03/28 00:18:38;;;;;;;24.38;8.82;;;;;;;;;;4929684;29;20501;-73
2022/03/28 00:21:04;;;;;;;29.15;9.68;;;;;;;;;;4931472;29;20130;-69
2022/03/28 00:23:32;;;;;;;26.60;9.45;;;;;;;;;;4928538;29;20055;-72
2022/03/28 00:25:59;;;;;;;35.10;9.80;;;;;;;;;;4930164;29;20047;-73
2022/03/28 00:28:25;;;;;;;29.27;10.25;;;;;;;;;;4928593;29;20493;-76
2022/03/28 00:30:50;;;;;;;23.45;9.48;;;;;;;;;;4926907;29;20091;-73
2022/03/28 00:33:17;;;;;;;25.42;9.27;;;;;;;;;;4930972;29;20388;-73
2022/03/28 00:35:43;;;;;;;24.40;9.15;;;;;;;;;;4930857;29;20858;-73
2022/03/28 00:38:11;;;;;;;26.65;9.77;;;;;;;;;;4925975;29;20044;-76
2022/03/28 00:40:38;;;;;;;24.77;9.32;;;;;;;;;;4927500;29;20130;-69
2022/03/28 00:43:06;;;;;;;27.27;9.70;;;;;;;;;;4921264;29;20502;-77
2022/03/28 00:45:33;;;;;;;27.65;10.25;;;;;;;;;;4927059;29;20062;-71
2022/03/28 00:48:00;;;;;;;24.00;10.32;;;;;;;;;;4927992;29;20056;-72
2022/03/28 00:50:28;;;;;;;23.63;9.18;;;;;;;;;;4910577;29;20071;-71
2022/03/28 00:52:54;;;;;;;27.50;10.25;;;;;;;;;;4926959;29;20413;-73
2022/03/28 00:55:21;;;;;;;24.98;9.60;;;;;;;;;;4924585;29;20044;-69
2022/03/28 00:57:47;;;;;;;30.15;10.75;;;;;;;;;;4922569;29;20134;-76
2022/03/28 01:00:13;;;;;;;26.80;9.38;;;;;;;;;;4926710;29;20134;-70
2022/03/28 01:02:39;;;;;;;27.98;9.40;;;;;;;;;;4924803;29;20052;-69
2022/03/28 01:05:06;;;;;;;37.65;9.73;;;;;;;;;;4909139;29;20055;-70
2022/03/28 01:07:32;;;;;;;29.85;9.57;;;;;;;;;;4930678;29;20055;-71
2022/03/28 01:10:01;;;;;;;28.92;11.27;;;;;;;;;;4927631;29;20429;-70
2022/03/28 01:12:29;;;;;;;31.08;10.18;;;;;;;;;;4931362;29;20057;-70
2022/03/28 01:14:55;;;;;;;31.08;10.60;;;;;;;;;;4924248;29;20048;-76
2022/03/28 01:20:06;;;;;;;33.20;10.07;;;;;;;;;;4925923;29;20054;-69
2022/03/28 01:22:32;;;;;;;29.83;9.80;;;;;;;;;;4928299;29;20087;-70
2022/03/28 01:25:00;;;;;;;28.38;9.70;;;;;;;;;;4929465;29;20071;-69
2022/03/28 01:27:26;;;;;;;27.08;10.68;;;;;;;;;;4929496;29;20047;-69
2022/03/28 01:29:52;;;;;;;24.73;10.05;;;;;;;;;;4928704;29;20055;-73
2022/03/28 01:32:18;;;;;;;24.63;9.82;;;;;;;;;;4925299;29;20036;-74
2022/03/28 01:34:44;;;;;;;26.27;10.45;;;;;;;;;;4926909;29;20486;-69
2022/03/28 01:37:10;;;;;;;29.67;10.60;;;;;;;;;;4926959;29;20042;-77
2022/03/28 01:39:36;;;;;;;20.15;9.23;;;;;;;;;;4929326;29;20126;-74
2022/03/28 01:42:02;;;;;;;26.35;9.90;;;;;;;;;;4925090;29;20200;-68
2022/03/28 01:44:28;;;;;;;21.83;10.00;;;;;;;;;;4926156;29;20051;-71
2022/03/28 01:46:54;;;;;;;27.48;10.90;;;;;;;;;;4925228;29;20047;-70
2022/03/28 01:49:20;;;;;;;24.55;9.73;;;;;;;;;;4927229;29;20063;-73
2022/03/28 01:51:47;;;;;;;20.88;10.13;;;;;;;;;;4929085;29;20048;-69
2022/03/28 01:54:14;;;;;;;29.02;10.10;;;;;;;;;;4928613;29;20051;-71
2022/03/28 01:56:40;;;;;;;23.90;9.75;;;;;;;;;;4926964;29;20111;-68
2022/03/28 01:59:07;;;;;;;28.52;9.48;;;;;;;;;;4925210;29;21841;-73
2022/03/28 02:01:34;;;;;;;22.27;9.18;;;;;;;;;;4909746;29;20138;-73
2022/03/28 02:04:00;;;;;;;27.05;10.73;;;;;;;;;;4905854;29;20421;-77
2022/03/28 02:06:27;;;;;;;28.88;10.80;;;;;;;;;;4929054;29;20044;-74
2022/03/28 02:08:53;;;;;;;29.42;9.80;;;;;;;;;;4927240;29;20056;-69
2022/03/28 02:11:19;;;;;;;27.08;10.25;;;;;;;;;;4931012;29;20083;-70
2022/03/28 02:13:45;;;;;;;29.17;9.57;;;;;;;;;;4908120;29;20320;-71
2022/03/28 02:16:12;;;;;;;29.85;10.80;;;;;;;;;;4925612;29;20095;-72
2022/03/28 02:18:40;;;;;;;24.02;9.07;;;;;;;;;;4928050;29;20379;-77
2022/03/28 02:21:06;;;;;;;26.67;9.27;;;;;;;;;;4929999;29;20067;-72
2022/03/28 02:23:32;;;;;;;26.75;9.18;;;;;;;;;;4924678;29;20044;-69
2022/03/28 02:25:59;;;;;;;30.38;9.98;;;;;;;;;;4928694;29;20055;-70
2022/03/28 02:28:25;;;;;;;25.05;9.27;;;;;;;;;;4927210;29;20098;-75
2022/03/28 02:30:51;;;;;;;19.48;8.52;;;;;;;;;;4928025;29;20060;-70
2022/03/28 02:33:17;;;;;;;24.02;9.57;;;;;;;;;;4929373;29;20117;-70
2022/03/28 02:35:43;;;;;;;25.75;8.55;;;;;;;;;;4927644;29;20059;-68
2022/03/28 02:38:09;;;;;;;18.50;8.65;;;;;;;;;;4933045;29;20051;-67
2022/03/28 02:40:36;;;;;;;26.88;9.27;;;;;;;;;;4933353;29;20090;-68
2022/03/28 02:43:03;;;;;;;33.15;9.80;;;;;;;;;;4931157;29;20473;-70
2022/03/28 02:45:32;;;;;;;24.90;9.07;;;;;;;;;;4929869;29;20648;-70
2022/03/28 02:47:59;;;;;;;25.42;8.95;;;;;;;;;;4932424;29;20047;-70
2022/03/28 02:50:29;;;;;;;30.35;10.25;;;;;;;;;;4930838;29;20537;-74
2022/03/28 02:52:55;;;;;;;23.27;8.35;;;;;;;;;;4928320;29;20067;-70
2022/03/28 02:55:21;;;;;;;17.95;8.38;;;;;;;;;;4924469;29;20044;-74
2022/03/28 02:57:47;;;;;;;27.45;9.27;;;;;;;;;;4929975;29;20112;-69
2022/03/28 03:00:14;;;;;;;17.30;8.73;;;;;;;;;;4930723;29;20099;-69
2022/03/28 03:02:41;;;;;;;28.80;9.27;;;;;;;;;;4930508;29;20083;-69
2022/03/28 03:05:11;;;;;;;22.70;8.63;;;;;;;;;;4930000;29;20051;-69
2022/03/28 03:07:38;;;;;;;23.52;8.32;;;;;;;;;;4930867;29;20044;-68
2022/03/28 03:10:05;;;;;;;31.27;10.15;;;;;;;;;;4914959;29;20584;-74
2022/03/28 03:12:31;;;;;;;26.05;9.18;;;;;;;;;;4932243;29;20389;-70
2022/03/28 03:14:57;;;;;;;22.05;9.30;;;;;;;;;;4913826;29;20122;-74
2022/03/28 03:17:23;;;;;;;27.67;9.35;;;;;;;;;;4931879;29;20047;-71
2022/03/28 03:19:49;;;;;;;24.55;9.75;;;;;;;;;;4929618;29;20059;-71
2022/03/28 03:22:16;;;;;;;29.10;9.95;;;;;;;;;;4914103;29;20208;-70
2022/03/28 03:24:43;;;;;;;22.63;8.10;;;;;;;;;;4930554;29;20043;-76
2022/03/28 03:27:09;;;;;;;23.63;8.73;;;;;;;;;;4930632;29;20409;-73
2022/03/28 03:29:36;;;;;;;25.55;9.63;;;;;;;;;;4929495;29;20066;-69
2022/03/28 03:32:03;;;;;;;38.05;9.07;;;;;;;;;;4928285;29;20055;-71
2022/03/28 03:34:30;;;;;;;27.67;8.55;;;;;;;;;;4926386;29;20063;-77
2022/03/28 03:36:56;;;;;;;28.27;8.65;;;;;;;;;;4925991;29;20048;-73
2022/03/28 03:39:22;;;;;;;23.63;8.95;;;;;;;;;;4929073;29;20090;-72
2022/03/28 03:41:49;;;;;;;22.15;8.20;;;;;;;;;;4931460;29;20477;-72
2022/03/28 03:44:15;;;;;;;25.67;8.75;;;;;;;;;;4930808;29;20147;-71
2022/03/28 03:46:41;;;;;;;22.58;8.05;;;;;;;;;;4929415;29;20130;-70
2022/03/28 03:49:08;;;;;;;24.05;7.82;;;;;;;;;;4930589;29;20155;-69
2022/03/28 03:51:35;;;;;;;21.75;7.20;;;;;;;;;;4929366;29;20076;-68
2022/03/28 03:54:01;;;;;;;23.10;8.38;;;;;;;;;;4930011;29;20127;-69
2022/03/28 03:56:28;;;;;;;21.75;7.68;;;;;;;;;;4928402;29;20134;-74
2022/03/28 03:58:55;;;;;;;26.17;7.38;;;;;;;;;;4928132;29;20055;-69
2022/03/28 04:01:21;;;;;;;23.60;8.32;;;;;;;;;;4925254;29;20124;-72
2022/03/28 04:03:47;;;;;;;23.73;7.40;;;;;;;;;;4930751;29;20052;-73
2022/03/28 04:06:13;;;;;;;20.88;7.45;;;;;;;;;;4913160;29;20044;-70
2022/03/28 04:08:39;;;;;;;27.98;8.25;;;;;;;;;;4928660;29;20464;-69
2022/03/28 04:11:06;;;;;;;21.58;7.47;;;;;;;;;;4925599;29;20139;-79
2022/03/28 04:13:33;;;;;;;22.02;7.18;;;;;;;;;;4928497;29;20098;-72
2022/03/28 04:15:59;;;;;;;22.00;7.43;;;;;;;;;;4928725;29;20047;-72
2022/03/28 04:18:25;;;;;;;19.63;8.10;;;;;;;;;;4930932;29;20457;-71
2022/03/28 04:20:52;;;;;;;23.10;7.28;;;;;;;;;;4928432;29;20182;-69
2022/03/28 04:23:19;;;;;;;21.83;7.13;;;;;;;;;;4929478;29;20047;-73
2022/03/28 04:25:44;;;;;;;24.60;8.10;;;;;;;;;;4916486;29;20062;-68
2022/03/28 04:28:10;;;;;;;21.55;7.53;;;;;;;;;;4929629;29;20044;-68
2022/03/28 04:30:38;;;;;;;16.60;6.70;;;;;;;;;;4925729;29;20043;-71
2022/03/28 04:33:07;;;;;;;17.13;6.63;;;;;;;;;;4925498;29;20486;-68
2022/03/28 04:35:33;;;;;;;23.20;6.72;;;;;;;;;;4931340;29;20047;-69
2022/03/28 04:38:00;;;;;;;22.55;7.15;;;;;;;;;;4931469;29;20551;-69
2022/03/28 04:40:26;;;;;;;21.42;6.90;;;;;;;;;;4927614;29;20047;-71
2022/03/28 04:42:52;;;;;;;21.52;7.10;;;;;;;;;;4912643;29;20063;-77
2022/03/28 04:45:18;;;;;;;21.85;7.88;;;;;;;;;;4928915;29;20159;-70
2022/03/28 04:47:44;;;;;;;18.42;7.53;;;;;;;;;;4930438;29;20126;-69
2022/03/28 04:50:10;;;;;;;27.92;7.63;;;;;;;;;;4922832;29;20503;-70
2022/03/28 04:52:37;;;;;;;22.42;7.97;;;;;;;;;;4896880;29;20475;-74
2022/03/28 04:55:04;;;;;;;24.50;7.35;;;;;;;;;;4916279;29;20044;-75
2022/03/28 04:57:31;;;;;;;23.17;7.43;;;;;;;;;;4923612;29;20526;-74
2022/03/28 04:59:57;;;;;;;22.42;7.65;;;;;;;;;;4921370;29;20174;-77
2022/03/28 05:02:23;;;;;;;25.83;7.72;;;;;;;;;;4920671;29;20501;-70
2022/03/28 05:04:49;;;;;;;19.27;7.20;;;;;;;;;;4924490;29;20051;-77
2022/03/28 05:07:29;;;;;;;18.27;6.97;;;;;;;;;;4924296;29;20130;-71
2022/03/28 05:09:56;;;;;;;19.95;7.35;;;;;;;;;;4922010;29;20151;-77
2022/03/28 05:12:26;;;;;;;19.02;7.38;;;;;;;;;;4921260;29;20522;-70
2022/03/28 05:14:53;;;;;;;24.40;6.90;;;;;;;;;;4921567;29;20710;-71
2022/03/28 05:17:23;;;;;;;19.38;7.63;;;;;;;;;;4920788;29;20106;-69
2022/03/28 05:19:50;;;;;;;20.90;7.43;;;;;;;;;;4923173;29;20107;-72
2022/03/28 05:22:16;;;;;;;16.65;7.22;;;;;;;;;;4919248;29;20063;-81
2022/03/28 05:24:42;;;;;;;21.50;7.40;;;;;;;;;;4924371;29;20107;-70
2022/03/28 05:27:08;;;;;;;25.10;8.02;;;;;;;;;;4923633;29;20052;-70
2022/03/28 05:29:34;;;;;;;20.48;7.28;;;;;;;;;;4923677;29;20051;-70
2022/03/28 05:32:01;;;;;;;27.17;6.75;;;;;;;;;;4918654;29;20059;-71
2022/03/28 05:34:30;;;;;;;28.95;7.70;;;;;;;;;;4924635;29;20577;-70
2022/03/28 05:37:01;;;;;;;17.75;6.90;;;;;;;;;;4925852;29;20151;-78
2022/03/28 05:39:28;;;;;;;20.48;6.78;;;;;;;;;;4924837;29;20191;-70
2022/03/28 05:41:54;;;;;;;21.27;6.75;;;;;;;;;;4921486;29;20134;-68
2022/03/28 05:44:20;;;;;;;18.60;6.65;;;;;;;;;;4907746;29;20055;-71
2022/03/28 05:46:48;;;;;;;25.95;7.32;;;;;;;;;;4920251;29;20055;-70
2022/03/28 05:49:18;;;;;;;25.98;7.35;;;;;;;;;;4924572;29;20060;-71
2022/03/28 05:51:44;;;;;;;29.20;6.45;;;;;;;;;;4922570;29;20123;-71
2022/03/28 05:54:10;;;;;;;23.83;6.30;;;;;;;;;;4922546;29;20151;-73
2022/03/28 05:56:36;;;;;;;20.00;6.55;;;;;;;;;;4922800;29;20055;-77
2022/03/28 05:59:02;;;;;;;20.55;6.55;;;;;;;;;;4925566;29;20122;-74
2022/03/28 06:01:29;;;;;;;20.67;6.28;;;;;;;;;;4920170;29;20483;-75
2022/03/28 06:03:55;;;;;;;19.40;6.38;;;;;;;;;;4907262;29;20056;-70
2022/03/28 06:06:21;;;;;;;17.10;6.20;;;;;;;;;;4922601;29;20055;-71
2022/03/28 06:08:47;;;;;;;26.55;6.68;;;;;;;;;;4919175;29;20138;-69
2022/03/28 06:11:13;;;;;;;24.67;6.65;;;;;;;;;;4917042;29;20044;-74
2022/03/28 06:13:39;;;;;;;20.27;6.93;;;;;;;;;;4901008;29;20067;-74
2022/03/28 06:16:05;;;;;;;21.00;7.22;;;;;;;;;;4914981;29;20113;-73
2022/03/28 06:18:30;;;;;;;30.13;6.88;;;;;;;;;;4919584;29;20109;-76
2022/03/28 06:20:56;;;;;;;28.17;6.75;;;;;;;;;;4923299;29;20087;-74
2022/03/28 06:23:22;;;;;;;23.33;7.05;;;;;;;;;;4921797;29;20062;-70
2022/03/28 06:25:48;;;;;;;21.75;6.60;;;;;;;;;;4926261;29;20063;-69
2022/03/28 06:28:15;;;;;;;22.60;7.25;;;;;;;;;;4918004;29;20196;-69
2022/03/28 06:30:41;;;;;;;18.75;6.80;;;;;;;;;;4922215;29;20079;-72
2022/03/28 06:33:07;;;;;;;19.33;7.07;;;;;;;;;;4925166;29;20050;-72
2022/03/28 06:35:33;;;;;;;17.55;6.97;;;;;;;;;;4926412;29;20040;-67
2022/03/28 06:37:59;;;;;;;25.30;7.55;;;;;;;;;;4927419;29;20496;-73
2022/03/28 06:40:25;;;;;;;25.67;7.82;;;;;;;;;;4925231;29;20060;-70
2022/03/28 06:42:51;;;;;;;21.92;6.45;;;;;;;;;;4924764;29;20134;-71
2022/03/28 06:45:17;;;;;;;21.63;7.25;;;;;;;;;;4926183;29;20162;-69
2022/03/28 06:47:44;;;;;;;23.20;7.28;;;;;;;;;;4926128;29;20085;-73
2022/03/28 06:50:11;;;;;;;24.90;7.22;;;;;;;;;;4926244;29;20063;-74
2022/03/28 06:52:37;;;;;;;22.98;6.93;;;;;;;;;;4920605;29;20677;-74
2022/03/28 06:55:05;;;;;;;16.90;6.53;;;;;;;;;;4925369;29;20040;-71
2022/03/28 06:57:31;;;;;;;32.40;7.65;;;;;;;;;;4915232;29;20059;-72
2022/03/28 06:59:56;;;;;;;28.58;7.53;;;;;;;;;;4919119;29;20060;-75
2022/03/28 07:02:22;;;;;;;25.55;6.70;;;;;;;;;;4911063;29;20083;-72
2022/03/28 07:04:48;;;;;;;24.40;7.40;;;;;;;;;;4923135;29;20521;-72
2022/03/28 07:07:14;;;;;;;23.50;7.50;;;;;;;;;;4926619;29;20117;-73
2022/03/28 07:09:40;;;;;;;35.95;7.13;;;;;;;;;;4927947;29;20052;-72
2022/03/28 07:12:09;;;;;;;23.30;6.55;;;;;;;;;;4931733;29;20501;-71
2022/03/28 07:14:35;;;;;;;19.88;6.57;;;;;;;;;;4918019;29;20055;-71
2022/03/28 07:17:02;;;;;;;20.98;7.53;;;;;;;;;;4935416;29;20349;-74
2022/03/28 07:19:28;;;;;;;24.23;6.50;;;;;;;;;;4932224;29;20047;-70
2022/03/28 07:21:54;;;;;;;28.50;6.65;;;;;;;;;;4931493;29;20059;-71
2022/03/28 07:24:21;;;;;;;22.70;6.70;;;;;;;;;;4929797;29;20124;-72
2022/03/28 07:26:48;;;;;;;16.08;6.20;;;;;;;;;;4910278;29;20344;-73
2022/03/28 07:29:17;;;;;;;21.98;7.10;;;;;;;;;;4923836;29;20047;-73
2022/03/28 07:31:44;;;;;;;23.17;7.63;;;;;;;;;;4929182;29;20523;-71
2022/03/28 07:36:55;;;;;;;;;;;;;;;;;;4912052;29;20719;-75
2022/03/28 07:39:21;;;;;;;16.55;6.40;;;;;;;;;;4908629;29;20236;-73
2022/03/28 07:41:48;;;;;;;22.58;6.85;;;;;;;;;;4919783;29;20565;-71
2022/03/28 07:44:14;;;;;;;17.92;6.28;;;;;;;;;;4929445;29;20338;-71
2022/03/28 07:46:43;;;;;;;24.10;6.13;;;;;;;;;;4930287;29;20245;-72
2022/03/28 07:49:09;;;;;;;22.70;6.68;;;;;;;;;;4928980;29;20475;-73
2022/03/28 07:51:35;;;;;;;19.23;6.55;;;;;;;;;;4930920;29;20062;-71
2022/03/28 07:54:02;;;;;;;20.73;7.20;;;;;;;;;;4930839;29;20040;-75
2022/03/28 07:56:28;;;;;;;22.75;6.20;;;;;;;;;;4928291;29;20051;-72
2022/03/28 07:58:54;;;;;;;19.67;6.82;;;;;;;;;;4929820;29;20043;-71
2022/03/28 08:01:20;;;;;;;17.40;6.60;;;;;;;;;;4929287;29;20051;-71
2022/03/28 08:03:46;;;;;;;18.58;6.07;;;;;;;;;;4928230;29;20044;-71
2022/03/28 08:06:12;;;;;;;20.90;6.43;;;;;;;;;;4931370;29;20363;-73
2022/03/28 08:08:38;;;;;;;29.10;6.90;;;;;;;;;;4927909;29;20060;-71
2022/03/28 08:11:07;;;;;;;21.50;6.88;;;;;;;;;;4925323;29;20083;-71
2022/03/28 08:13:37;;;;;;;23.70;6.20;;;;;;;;;;4923771;29;20056;-71
2022/03/28 08:16:04;;;;;;;19.23;6.35;;;;;;;;;;4928766;29;20566;-71
2022/03/28 08:18:30;;;;;;;18.35;6.38;;;;;;;;;;4926850;29;20056;-74
2022/03/28 08:20:57;;;;;;;16.73;6.57;;;;;;;;;;4925799;29;20062;-71
2022/03/28 08:23:23;;;;;;;21.58;6.85;;;;;;;;;;4930541;29;20044;-72
2022/03/28 08:25:50;;;;;;;25.65;7.25;;;;;;;;;;4927499;29;20128;-73
2022/03/28 08:28:16;;;;;;;12.75;5.90;;;;;;;;;;4931434;29;20052;-72
2022/03/28 08:30:42;;;;;;;22.77;6.70;;;;;;;;;;4928256;29;20051;-72
2022/03/28 08:33:09;;;;;;;20.77;6.93;;;;;;;;;;4931068;29;20098;-71
2022/03/28 08:35:37;;;;;;;25.88;7.18;;;;;;;;;;4928674;29;20048;-69
2022/03/28 08:38:03;;;;;;;21.48;7.50;;;;;;;;;;4931520;29;20051;-74
2022/03/28 08:40:29;;;;;;;28.70;7.50;;;;;;;;;;4928977;29;20063;-71
2022/03/28 08:42:55;;;;;;;19.77;6.30;;;;;;;;;;4928819;29;20556;-68
2022/03/28 08:45:22;;;;;;;23.40;6.57;;;;;;;;;;4925770;29;20075;-73
2022/03/28 08:47:50;;;;;;;21.52;6.78;;;;;;;;;;4924441;29;20054;-72
2022/03/28 08:50:16;;;;;;;19.48;6.88;;;;;;;;;;4926806;29;20059;-71
2022/03/28 08:52:43;;;;;;;21.83;7.55;;;;;;;;;;4931816;29;20047;-71
2022/03/28 08:55:10;;;;;;;30.00;7.68;;;;;;;;;;4927261;29;20051;-71
2022/03/28 08:57:37;;;;;;;25.92;7.03;;;;;;;;;;4929072;29;20052;-74
2022/03/28 09:00:09;;;;;;;22.38;7.78;;;;;;;;;;4926556;29;20408;-70
2022/03/28 09:02:41;;;;;;;26.88;7.30;;;;;;;;;;4924807;29;20047;-71
2022/03/28 09:05:11;;;;;;;19.02;7.22;;;;;;;;;;4925122;29;20053;-74
2022/03/28 09:07:38;;;;;;;22.67;7.85;;;;;;;;;;4929258;29;20513;-72
2022/03/28 09:10:13;;;;;;;20.75;7.57;;;;;;;;;;4928473;29;20129;-70
2022/03/28 09:13:04;;;;;;;26.83;7.18;;;;;;;;;;4920959;29;20505;-72
2022/03/28 09:15:55;;;;;;;29.02;8.35;;;;;;;;;;4923406;29;20056;-73
2022/03/28 09:18:30;;;;;;;28.77;8.75;;;;;;;;;;4920725;29;20055;-73
2022/03/28 09:21:10;;;;;;;22.60;7.85;;;;;;;;;;4927507;29;20205;-70
2022/03/28 09:23:40;;;;;;;24.63;7.38;;;;;;;;;;4921909;29;20136;-70
2022/03/28 09:26:18;;;;;;;21.83;8.15;;;;;;;;;;4927294;29;20039;-77
2022/03/28 09:28:53;;;;;;;17.65;6.97;;;;;;;;;;4921624;29;20090;-71
2022/03/28 09:31:34;;;;;;;19.05;6.43;;;;;;;;;;4927434;29;20050;-72
2022/03/28 09:34:13;;;;;;;15.63;5.90;;;;;;;;;;4925820;29;20083;-68
2022/03/28 09:36:44;;;;;;;28.63;6.43;;;;;;;;;;4920544;29;20048;-70
2022/03/28 09:39:12;;;;;;;13.55;5.20;;;;;;;;;;4917204;29;20040;-74
2022/03/28 09:41:38;;;;;;;22.45;6.30;;;;;;;;;;4915455;29;20040;-72
2022/03/28 09:44:05;;;;;;;21.25;6.82;;;;;;;;;;4928549;29;20063;-73
2022/03/28 09:46:32;;;;;;;17.17;6.25;;;;;;;;;;4921587;29;20533;-72
2022/03/28 09:48:59;;;;;;;13.27;6.22;;;;;;;;;;4920546;29;20135;-71
2022/03/28 09:51:27;;;;;;;23.08;6.82;;;;;;;;;;4928987;29;20058;-71
2022/03/28 09:53:54;;;;;;;23.48;6.55;;;;;;;;;;4928554;29;20043;-69
2022/03/28 09:56:20;;;;;;;20.60;6.68;;;;;;;;;;4922693;29;20044;-69
2022/03/28 09:58:59;;;;;;;22.95;6.47;;;;;;;;;;4927398;29;20062;-70
2022/03/28 10:01:28;;;;;;;18.65;6.22;;;;;;;;;;4926931;29;20059;-69
2022/03/28 10:03:58;;;;;;;19.83;6.50;;;;;;;;;;4927310;29;20099;-69
2022/03/28 10:06:24;;;;;;;17.40;5.90;;;;;;;;;;4928705;29;20056;-70
2022/03/28 10:08:50;;;;;;;20.73;5.90;;;;;;;;;;4929135;29;20063;-72
2022/03/28 10:11:16;;;;;;;20.80;5.57;;;;;;;;;;4927468;29;20270;-69
2022/03/28 10:13:44;;;;;;;17.90;5.60;;;;;;;;;;4926878;29;20059;-70
2022/03/28 10:16:10;;;;;;;21.80;5.30;;;;;;;;;;4930280;29;20043;-70
2022/03/28 10:18:39;;;;;;;20.02;5.93;;;;;;;;;;4925557;29;20470;-67
2022/03/28 10:21:17;;;;;;;22.45;7.20;;;;;;;;;;4946058;29;20122;-70
2022/03/28 10:23:46;;;;;;;20.92;6.22;;;;;;;;;;4924375;29;20048;-70
2022/03/28 10:26:13;;;;;;;21.13;6.10;;;;;;;;;;4916838;29;20139;-71
2022/03/28 10:28:39;;;;;;;16.67;7.32;;;;;;;;;;4918141;29;20462;-69
2022/03/28 10:31:13;;;;;;;22.00;6.80;;;;;;;;;;4925659;29;20174;-70
2022/03/28 10:33:51;;;;;;;18.23;6.78;;;;;;;;;;4895428;29;20052;-69
2022/03/28 10:36:23;;;;;;;21.83;7.60;;;;;;;;;;4925497;29;20357;-70
2022/03/28 10:38:53;;;;;;;16.55;6.95;;;;;;;;;;4926890;29;20058;-67
2022/03/28 10:41:20;;;;;;;27.50;7.43;;;;;;;;;;4929154;29;20059;-68
2022/03/28 10:43:47;;;;;;;24.40;7.85;;;;;;;;;;4928601;29;20058;-69
2022/03/28 10:46:14;;;;;;;21.55;6.70;;;;;;;;;;4927315;29;20043;-69
2022/03/28 10:49:00;;;;;;;20.40;6.60;;;;;;;;;;4921452;29;20067;-69
2022/03/28 10:51:30;;;;;;;23.77;6.53;;;;;;;;;;4924563;29;20393;-73
2022/03/28 10:53:59;;;;;;;19.95;6.47;;;;;;;;;;4928621;29;20050;-72
2022/03/28 10:56:32;;;;;;;22.65;6.63;;;;;;;;;;4927239;29;20047;-70
2022/03/28 10:59:09;;;;;;;27.73;7.05;;;;;;;;;;4930227;29;20052;-73
2022/03/28 11:01:40;;;;;;;19.02;6.53;;;;;;;;;;4931220;29;20226;-69
2022/03/28 11:04:12;;;;;;;19.85;6.65;;;;;;;;;;4920276;29;20048;-68
2022/03/28 11:07:00;;;;;;;21.90;6.43;;;;;;;;;;4932498;29;20051;-73
2022/03/28 11:09:50;;;;;;;19.73;6.35;;;;;;;;;;4931060;29;20155;-74
2022/03/28 11:12:19;;;;;;;18.77;6.85;;;;;;;;;;4911895;29;20055;-69
2022/03/28 11:14:51;;;;;;;25.40;6.93;;;;;;;;;;4932099;29;20139;-71
2022/03/28 11:17:22;;;;;;;22.90;6.90;;;;;;;;;;4930186;29;20036;-69
2022/03/28 11:19:55;;;;;;;19.27;5.55;;;;;;;;;;4924121;29;20066;-70
2022/03/28 11:22:57;;;;;;;15.95;6.18;;;;;;;;;;4931874;29;20059;-69
2022/03/28 11:25:39;;;;;;;23.85;6.40;;;;;;;;;;4924791;29;20191;-70
2022/03/28 11:28:14;;;;;;;24.85;6.63;;;;;;;;;;4928766;29;20055;-71
2022/03/28 11:31:03;;;;;;;18.77;6.30;;;;;;;;;;4913885;29;20409;-69
2022/03/28 11:33:41;;;;;;;21.50;6.18;;;;;;;;;;4921291;29;20134;-68
2022/03/28 11:36:15;;;;;;;23.48;5.75;;;;;;;;;;4938583;29;20044;-72
2022/03/28 11:38:47;;;;;;;25.42;6.13;;;;;;;;;;4922328;29;20055;-68
2022/03/28 11:41:15;;;;;;;20.83;6.38;;;;;;;;;;4931759;29;20086;-66
2022/03/28 11:43:46;;;;;;;23.27;6.40;;;;;;;;;;4931972;29;20043;-69
2022/03/28 11:46:20;;;;;;;19.95;6.22;;;;;;;;;;4938492;29;20505;-70
2022/03/28 11:48:54;;;;;;;25.30;6.90;;;;;;;;;;4914876;29;20406;-68
2022/03/28 11:51:21;;;;;;;22.15;6.55;;;;;;;;;;4928442;29;20494;-73
2022/03/28 11:53:47;;;;;;;24.58;6.93;;;;;;;;;;4927729;29;20040;-71
2022/03/28 11:56:27;;;;;;;23.08;6.65;;;;;;;;;;4920976;29;20063;-67
2022/03/28 11:59:07;;;;;;;18.10;6.32;;;;;;;;;;4928054;29;20203;-69
2022/03/28 12:01:36;;;;;;;21.35;5.72;;;;;;;;;;4919763;29;20040;-71
2022/03/28 12:04:02;;;;;;;18.77;6.05;;;;;;;;;;4921784;29;20044;-69
2022/03/28 12:06:42;;;;;;;25.33;6.85;;;;;;;;;;4928915;29;20075;-77
2022/03/28 12:09:08;;;;;;;23.83;7.60;;;;;;;;;;4927339;29;20043;-68
2022/03/28 12:11:37;;;;;;;23.60;6.47;;;;;;;;;;4927478;29;20048;-68
2022/03/28 12:14:03;;;;;;;21.13;6.47;;;;;;;;;;4928368;29;20052;-69
2022/03/28 12:16:29;;;;;;;21.25;5.95;;;;;;;;;;4927583;29;20047;-71
2022/03/28 12:18:58;;;;;;;15.10;5.57;;;;;;;;;;4931160;29;20051;-70
2022/03/28 12:21:28;;;;;;;19.90;6.35;;;;;;;;;;4929701;29;20059;-69
2022/03/28 12:23:54;;;;;;;24.05;6.18;;;;;;;;;;4926102;29;20401;-67
2022/03/28 12:26:20;;;;;;;19.42;5.82;;;;;;;;;;4925650;29;20170;-71
2022/03/28 12:28:46;;;;;;;19.67;6.40;;;;;;;;;;4929855;29;20118;-71
2022/03/28 12:31:13;;;;;;;26.42;6.90;;;;;;;;;;4928390;29;20067;-76
2022/03/28 12:33:42;;;;;;;26.10;6.30;;;;;;;;;;4927774;29;20054;-69
2022/03/28 12:36:09;;;;;;;16.30;5.75;;;;;;;;;;4929407;29;20055;-69
2022/03/28 12:38:40;;;;;;;22.90;6.45;;;;;;;;;;4910174;29;20043;-72
2022/03/28 12:41:13;;;;;;;26.90;6.97;;;;;;;;;;4925184;29;20055;-72
2022/03/28 12:43:46;;;;;;;20.20;6.27;;;;;;;;;;4929247;29;20059;-71
2022/03/28 12:46:13;;;;;;;21.15;5.97;;;;;;;;;;4928607;29;20044;-71
2022/03/28 12:48:44;;;;;;;22.88;6.50;;;;;;;;;;4926849;29;20082;-72
2022/03/28 12:51:19;;;;;;;19.60;6.50;;;;;;;;;;4912473;29;20102;-73
2022/03/28 12:53:45;;;;;;;19.13;5.85;;;;;;;;;;4929729;29;20039;-70
2022/03/28 12:56:16;;;;;;;24.30;6.35;;;;;;;;;;4928696;29;20047;-71
2022/03/28 12:58:56;;;;;;;18.98;7.15;;;;;;;;;;4929328;29;20051;-73
2022/03/28 13:01:29;;;;;;;18.48;6.10;;;;;;;;;;4922902;29;20063;-71
2022/03/28 13:04:09;;;;;;;23.15;5.97;;;;;;;;;;4927922;29;20056;-72
2022/03/28 13:06:44;;;;;;;23.08;6.63;;;;;;;;;;4923185;29;20115;-68
2022/03/28 13:09:19;;;;;;;21.67;6.07;;;;;;;;;;4929500;29;20055;-70
2022/03/28 13:11:47;;;;;;;26.58;6.78;;;;;;;;;;4912402;29;20047;-72
2022/03/28 13:14:31;;;;;;;27.10;6.75;;;;;;;;;;4927969;29;20048;-70
2022/03/28 13:17:12;;;;;;;23.60;6.38;;;;;;;;;;4926995;29;20051;-69
2022/03/28 13:19:54;;;;;;;20.92;6.65;;;;;;;;;;4931417;29;20142;-69
2022/03/28 13:22:27;;;;;;;18.42;6.15;;;;;;;;;;4929231;29;20047;-72
2022/03/28 13:25:16;;;;;;;18.88;6.50;;;;;;;;;;4929416;29;20052;-69
2022/03/28 13:28:02;;;;;;;20.42;7.07;;;;;;;;;;4928766;29;20115;-71
2022/03/28 13:30:35;;;;;;;18.13;5.95;;;;;;;;;;4922152;29;20048;-70
2022/03/28 13:33:02;;;;;;;19.25;7.45;;;;;;;;;;4933434;29;20043;-72
2022/03/28 13:35:28;;;;;;;24.40;7.22;;;;;;;;;;4933481;29;20052;-70
2022/03/28 13:37:57;;;;;;;24.95;7.07;;;;;;;;;;4940729;29;20043;-77
2022/03/28 13:40:23;;;;;;;21.08;7.03;;;;;;;;;;4928176;29;20139;-71
2022/03/28 13:42:49;;;;;;;20.50;7.28;;;;;;;;;;4928802;29;20094;-76
2022/03/28 13:45:15;;;;;;;19.60;6.07;;;;;;;;;;4941747;29;20462;-70
2022/03/28 13:47:41;;;;;;;20.17;6.25;;;;;;;;;;4928064;29;20130;-75
2022/03/28 13:50:07;;;;;;;20.48;6.35;;;;;;;;;;4913244;29;20160;-72
2022/03/28 13:52:33;;;;;;;23.75;5.97;;;;;;;;;;4936320;29;20590;-70
2022/03/28 13:54:58;;;;;;;15.80;5.78;;;;;;;;;;4897247;29;20141;-70
2022/03/28 13:57:26;;;;;;;19.80;5.90;;;;;;;;;;4924845;29;20052;-74
2022/03/28 13:59:52;;;;;;;19.83;5.88;;;;;;;;;;4929170;29;20505;-75
2022/03/28 14:02:19;;;;;;;20.65;5.95;;;;;;;;;;4926112;29;20054;-69
2022/03/28 14:04:45;;;;;;;21.40;6.40;;;;;;;;;;4926325;29;20047;-73
2022/03/28 14:07:11;;;;;;;22.23;5.80;;;;;;;;;;4927915;29;20056;-68
2022/03/28 14:09:37;;;;;;;20.73;6.00;;;;;;;;;;4920473;29;20044;-69
2022/03/28 14:12:04;;;;;;;23.73;5.50;;;;;;;;;;4921156;29;20118;-71
2022/03/28 14:14:30;;;;;;;24.13;6.25;;;;;;;;;;4902470;29;20055;-73
2022/03/28 14:16:57;;;;;;;16.23;5.10;;;;;;;;;;4914385;29;20511;-72
2022/03/28 14:19:23;;;;;;;19.85;5.45;;;;;;;;;;4926624;29;20044;-73
2022/03/28 14:21:52;;;;;;;17.83;5.45;;;;;;;;;;4919669;29;20102;-72
2022/03/28 14:24:18;;;;;;;20.77;6.45;;;;;;;;;;4922213;29;20050;-74
2022/03/28 14:26:44;;;;;;;23.48;6.15;;;;;;;;;;4935953;29;20517;-73
2022/03/28 14:29:10;;;;;;;13.93;5.35;;;;;;;;;;4921862;29;20107;-68
2022/03/28 14:31:36;;;;;;;19.02;5.55;;;;;;;;;;4928780;29;20083;-74
2022/03/28 14:34:03;;;;;;;23.25;6.07;;;;;;;;;;4930368;29;20505;-71
2022/03/28 14:36:30;;;;;;;20.88;5.20;;;;;;;;;;4932998;29;20051;-72
2022/03/28 14:38:56;;;;;;;16.73;5.60;;;;;;;;;;4928963;29;20108;-72
2022/03/28 14:41:22;;;;;;;22.05;6.00;;;;;;;;;;4927235;29;20047;-72